Terminal Aerodrome Forecast
Issued by NWS Shreveport, LA

Home | Current Version | Previous Version | Text Only | Print | Product List | Glossary On
Versions: 1 2 3 4 5 6 7 8 9 10 11 12 13 14 15 16
000
FTUS44 KSHV 271700
TAFLFK
TAF
KLFK 271724Z 2718/2818 18005KT P6SM VCTS OVC003CB
      TEMPO 2718/2719 VRB15G25KT 4SM TSRA BR OVC003CB
     FM280000 35012KT 4SM -RA BR VCSH BKN007 OVC015
     FM280600 34010KT 4SM -RA BR BKN007 OVC015
      TEMPO 2806/2810 2SM -RA BR
     FM281200 35006KT P6SM OVC100=

USA.gov is the U.S. government's official web portal to all federal, state and local government web resources and services.